Time;durP1;ratioP1;P1;durP2;ratioP2;P2;SDS_P1;SDS_P2;PMS_P1;PMS_P2;Temp;Humidity;BMP_temperature;BMP_pressure;BME280_temperature;BME280_humidity;BME280_pressure;Samples;Min_cycle;Max_cycle;Signal;HPM_P1;HPM_P2
2022/10/08 00:01:40;;;;;;;5.28;5.07;;;;;;;;;;5009229;28;20026;-70
2022/10/08 00:04:05;;;;;;;5.25;5.05;;;;;;;;;;5002887;28;20070;-70
2022/10/08 00:06:31;;;;;;;5.50;5.30;;;;;;;;;;5008386;28;20030;-70
2022/10/08 00:09:03;;;;;;;5.45;5.25;;;;;;;;;;4999391;28;20558;-70
2022/10/08 00:11:35;;;;;;;5.70;5.45;;;;;;;;;;5008875;28;20029;-70
2022/10/08 00:14:01;;;;;;;6.10;5.80;;;;;;;;;;5001571;28;20145;-70
2022/10/08 00:16:30;;;;;;;5.53;5.32;;;;;;;;;;5005968;28;20033;-70
2022/10/08 00:19:02;;;;;;;5.80;5.50;;;;;;;;;;5005704;28;20042;-70
2022/10/08 00:21:33;;;;;;;5.60;5.40;;;;;;;;;;4997198;28;20045;-70
2022/10/08 00:24:00;;;;;;;5.90;5.60;;;;;;;;;;5002910;28;20030;-70
2022/10/08 00:26:27;;;;;;;5.80;5.50;;;;;;;;;;5001686;28;20037;-70
2022/10/08 00:28:55;;;;;;;5.60;5.40;;;;;;;;;;5005052;28;20042;-70
2022/10/08 00:31:27;;;;;;;5.55;5.35;;;;;;;;;;4998478;28;20038;-72
2022/10/08 00:33:55;;;;;;;5.40;5.20;;;;;;;;;;4996854;28;20044;-70
2022/10/08 00:36:24;;;;;;;5.60;5.40;;;;;;;;;;4996782;28;20073;-70
2022/10/08 00:39:17;;;;;;;5.30;5.10;;;;;;;;;;4998131;28;20034;-70
2022/10/08 00:41:47;;;;;;;5.40;5.20;;;;;;;;;;4997365;28;20065;-71
2022/10/08 00:44:38;;;;;;;;;;;;;;;;;;5001147;28;20060;-70
2022/10/08 00:47:06;;;;;;;5.90;5.60;;;;;;;;;;4955877;28;20401;-70
2022/10/08 00:49:31;;;;;;;5.68;5.40;;;;;;;;;;4953511;28;20503;-70
2022/10/08 00:51:57;;;;;;;5.65;5.43;;;;;;;;;;4954710;28;20102;-70
2022/10/08 00:54:23;;;;;;;5.50;5.30;;;;;;;;;;4951228;28;20049;-70
2022/10/08 00:56:51;;;;;;;5.68;5.38;;;;;;;;;;4957845;28;20042;-70
2022/10/08 00:59:18;;;;;;;5.43;5.23;;;;;;;;;;4953924;28;20408;-70
2022/10/08 01:01:43;;;;;;;5.75;5.47;;;;;;;;;;4955429;28;20352;-70
2022/10/08 01:04:11;;;;;;;5.80;5.50;;;;;;;;;;4958050;28;20050;-70
2022/10/08 01:06:56;;;;;;;5.50;5.30;;;;;;;;;;4956165;28;20549;-70
2022/10/08 01:09:40;;;;;;;5.40;5.20;;;;;;;;;;4953317;28;20062;-70
2022/10/08 01:12:06;;;;;;;5.43;5.13;;;;;;;;;;4955917;28;20051;-71
2022/10/08 01:14:59;;;;;;;5.32;5.13;;;;;;;;;;4956097;28;20049;-69
2022/10/08 01:18:02;;;;;;;5.60;5.40;;;;;;;;;;4955930;28;20039;-70
2022/10/08 01:20:35;;;;;;;5.78;5.47;;;;;;;;;;4956411;28;20027;-70
2022/10/08 01:23:36;;;;;;;5.53;5.32;;;;;;;;;;4963895;28;20046;-70
2022/10/08 01:26:34;;;;;;;5.28;5.07;;;;;;;;;;4998271;28;20379;-70
2022/10/08 01:29:19;;;;;;;5.22;5.03;;;;;;;;;;4979792;28;20481;-70
2022/10/08 01:32:01;;;;;;;5.35;5.15;;;;;;;;;;5001529;28;20137;-70
2022/10/08 01:34:39;;;;;;;5.57;5.38;;;;;;;;;;5002600;28;20030;-70
2022/10/08 01:37:08;;;;;;;5.40;5.20;;;;;;;;;;5002174;28;20635;-70
2022/10/08 01:39:36;;;;;;;5.70;5.40;;;;;;;;;;4995064;28;20049;-70
2022/10/08 01:42:06;;;;;;;5.85;5.55;;;;;;;;;;4999959;28;20177;-70
2022/10/08 01:44:39;;;;;;;;;;;;;;;;;;5003637;28;20038;-70
2022/10/08 01:47:10;;;;;;;6.15;5.85;;;;;;;;;;5001853;28;19968;-70
2022/10/08 01:49:44;;;;;;;5.28;5.07;;;;;;;;;;5005306;28;20045;-70
2022/10/08 01:52:22;;;;;;;5.82;5.53;;;;;;;;;;5000206;28;20045;-69
2022/10/08 01:54:50;;;;;;;5.53;5.32;;;;;;;;;;4998450;28;20030;-70
2022/10/08 01:57:16;;;;;;;5.38;5.18;;;;;;;;;;4996055;28;20048;-70
2022/10/08 01:59:58;;;;;;;5.75;5.45;;;;;;;;;;5001621;28;20029;-70
2022/10/08 02:02:25;;;;;;;5.80;5.50;;;;;;;;;;4997420;28;20045;-70
2022/10/08 02:04:53;;;;;;;5.70;5.45;;;;;;;;;;4998120;28;20036;-70
2022/10/08 02:07:28;;;;;;;5.72;5.47;;;;;;;;;;4992481;28;20034;-70
2022/10/08 02:10:24;;;;;;;5.45;5.25;;;;;;;;;;4997940;28;20033;-70
2022/10/08 02:12:49;;;;;;;5.50;5.30;;;;;;;;;;5001223;28;20030;-70
2022/10/08 02:15:22;;;;;;;5.50;5.30;;;;;;;;;;4996894;28;20038;-70
2022/10/08 02:18:06;;;;;;;5.90;5.60;;;;;;;;;;4997816;28;20034;-70
2022/10/08 02:20:44;;;;;;;5.80;5.50;;;;;;;;;;4996365;28;20065;-70
2022/10/08 02:23:21;;;;;;;;;;;;;;;;;;4994799;28;20063;-70
2022/10/08 02:26:02;;;;;;;5.53;5.32;;;;;;;;;;5003748;28;20011;-70
2022/10/08 02:28:43;;;;;;;5.60;5.40;;;;;;;;;;4989816;28;20588;-70
2022/10/08 02:31:17;;;;;;;5.38;5.18;;;;;;;;;;4996109;28;20128;-70
2022/10/08 02:33:49;;;;;;;5.78;5.47;;;;;;;;;;5007550;28;20038;-69
2022/10/08 02:36:21;;;;;;;6.35;5.95;;;;;;;;;;5001826;28;20046;-70
2022/10/08 02:38:53;;;;;;;5.57;5.38;;;;;;;;;;4999222;28;20065;-69
2022/10/08 02:41:22;;;;;;;5.45;5.25;;;;;;;;;;5008160;28;20033;-70
2022/10/08 02:43:49;;;;;;;5.80;5.50;;;;;;;;;;5004726;28;20551;-70
2022/10/08 02:46:19;;;;;;;5.30;5.10;;;;;;;;;;4994838;28;20029;-70
2022/10/08 02:48:56;;;;;;;5.60;5.40;;;;;;;;;;5001186;28;20041;-70
2022/10/08 02:51:23;;;;;;;5.68;5.38;;;;;;;;;;5001769;28;20022;-70
2022/10/08 02:53:49;;;;;;;5.78;5.47;;;;;;;;;;5001208;28;20042;-70
2022/10/08 02:56:26;;;;;;;5.43;5.22;;;;;;;;;;5002840;28;20049;-70
2022/10/08 02:58:53;;;;;;;5.50;5.30;;;;;;;;;;5005320;28;20041;-70
2022/10/08 03:01:27;;;;;;;5.55;5.35;;;;;;;;;;4997253;28;20030;-71
2022/10/08 03:04:00;;;;;;;5.15;4.95;;;;;;;;;;4998575;28;20060;-70
2022/10/08 03:06:27;;;;;;;5.20;5.00;;;;;;;;;;4998354;28;20084;-70
2022/10/08 03:08:55;;;;;;;5.60;5.40;;;;;;;;;;5004451;28;20045;-70
2022/10/08 03:11:22;;;;;;;5.30;5.10;;;;;;;;;;5003598;28;20034;-70
2022/10/08 03:13:49;;;;;;;5.47;5.28;;;;;;;;;;4995996;28;20042;-70
2022/10/08 03:16:19;;;;;;;5.57;5.38;;;;;;;;;;4999964;28;20041;-71
2022/10/08 03:18:45;;;;;;;5.43;5.22;;;;;;;;;;5003570;28;20030;-70
2022/10/08 03:21:12;;;;;;;5.30;5.10;;;;;;;;;;4996968;28;20037;-70
2022/10/08 03:23:38;;;;;;;5.50;5.30;;;;;;;;;;4996391;28;20042;-70
2022/10/08 03:26:04;;;;;;;5.38;5.18;;;;;;;;;;4997053;28;20053;-70
2022/10/08 03:28:29;;;;;;;5.60;5.40;;;;;;;;;;5002625;28;20053;-70
2022/10/08 03:30:55;;;;;;;5.20;5.00;;;;;;;;;;4996198;28;20081;-71
2022/10/08 03:33:21;;;;;;;5.45;5.15;;;;;;;;;;4995208;28;20034;-70
2022/10/08 03:35:47;;;;;;;5.35;5.15;;;;;;;;;;4999666;28;20108;-70
2022/10/08 03:38:16;;;;;;;5.20;5.00;;;;;;;;;;4992404;28;20042;-70
2022/10/08 03:40:43;;;;;;;5.03;4.82;;;;;;;;;;5001388;28;20025;-70
2022/10/08 03:43:09;;;;;;;5.60;5.30;;;;;;;;;;5000482;28;20049;-70
2022/10/08 03:45:34;;;;;;;5.32;5.13;;;;;;;;;;5008409;28;20037;-70
2022/10/08 03:48:00;;;;;;;5.50;5.30;;;;;;;;;;5001249;28;20080;-70
2022/10/08 03:50:25;;;;;;;5.43;5.22;;;;;;;;;;5008114;28;20414;-70
2022/10/08 03:52:51;;;;;;;5.40;5.20;;;;;;;;;;5000891;28;20042;-69
2022/10/08 03:55:17;;;;;;;5.50;5.30;;;;;;;;;;5002246;28;20034;-70
2022/10/08 03:57:43;;;;;;;5.20;5.00;;;;;;;;;;5002806;28;20033;-70
2022/10/08 04:00:09;;;;;;;5.28;5.07;;;;;;;;;;5001652;28;20034;-70
2022/10/08 04:02:34;;;;;;;5.80;5.50;;;;;;;;;;5004671;28;20625;-70
2022/10/08 04:05:00;;;;;;;5.40;5.20;;;;;;;;;;4997421;28;20053;-70
2022/10/08 04:07:26;;;;;;;5.43;5.22;;;;;;;;;;5000593;28;20030;-70
2022/10/08 04:09:51;;;;;;;5.43;5.22;;;;;;;;;;5000201;28;20133;-70
2022/10/08 04:12:17;;;;;;;5.38;5.18;;;;;;;;;;4996292;28;20034;-70
2022/10/08 04:14:42;;;;;;;5.30;5.10;;;;;;;;;;4996884;28;20041;-70
2022/10/08 04:17:08;;;;;;;5.40;5.20;;;;;;;;;;5004172;28;20042;-70
2022/10/08 04:19:33;;;;;;;5.70;5.45;;;;;;;;;;4996032;28;20477;-70
2022/10/08 04:21:59;;;;;;;6.05;5.75;;;;;;;;;;4998724;28;20088;-70
2022/10/08 04:24:24;;;;;;;5.88;5.57;;;;;;;;;;5001630;28;20056;-70
2022/10/08 04:26:50;;;;;;;5.40;5.20;;;;;;;;;;5004063;28;20038;-71
2022/10/08 04:29:15;;;;;;;5.20;5.00;;;;;;;;;;4998069;28;20049;-70
2022/10/08 04:31:41;;;;;;;5.10;4.90;;;;;;;;;;4998627;28;20502;-70
2022/10/08 04:34:09;;;;;;;5.10;4.90;;;;;;;;;;4998916;28;20659;-70
2022/10/08 04:36:34;;;;;;;5.40;5.20;;;;;;;;;;5004341;28;20041;-70
2022/10/08 04:39:00;;;;;;;5.50;5.30;;;;;;;;;;4998838;28;20168;-70
2022/10/08 04:41:26;;;;;;;5.25;5.05;;;;;;;;;;4996573;28;20077;-70
2022/10/08 04:43:53;;;;;;;5.82;5.53;;;;;;;;;;4998248;28;20026;-70
2022/10/08 04:46:20;;;;;;;5.63;5.40;;;;;;;;;;4999274;28;20105;-70
2022/10/08 04:48:51;;;;;;;5.30;5.10;;;;;;;;;;5005751;28;20034;-70
2022/10/08 04:51:17;;;;;;;5.55;5.35;;;;;;;;;;5001346;28;20443;-70
2022/10/08 04:53:44;;;;;;;5.82;5.53;;;;;;;;;;4998896;28;20041;-70
2022/10/08 04:56:17;;;;;;;5.47;5.28;;;;;;;;;;4996648;28;20669;-70
2022/10/08 04:58:43;;;;;;;6.00;5.70;;;;;;;;;;5002532;28;20029;-71
2022/10/08 05:01:11;;;;;;;5.35;5.15;;;;;;;;;;5000183;28;20058;-70
2022/10/08 05:03:39;;;;;;;5.90;5.60;;;;;;;;;;5001589;28;20037;-70
2022/10/08 05:06:05;;;;;;;5.85;5.55;;;;;;;;;;5001009;28;20030;-70
2022/10/08 05:08:32;;;;;;;5.35;5.15;;;;;;;;;;4998965;28;20053;-70
2022/10/08 05:10:57;;;;;;;5.40;5.20;;;;;;;;;;5007355;28;20037;-70
2022/10/08 05:13:23;;;;;;;5.30;5.10;;;;;;;;;;5004506;28;20053;-70
2022/10/08 05:15:49;;;;;;;5.50;5.30;;;;;;;;;;5002903;28;20501;-70
2022/10/08 05:18:14;;;;;;;5.40;5.20;;;;;;;;;;5002804;28;20042;-70
2022/10/08 05:20:40;;;;;;;5.65;5.45;;;;;;;;;;5002929;28;20022;-70
2022/10/08 05:23:05;;;;;;;5.47;5.28;;;;;;;;;;4999950;28;20061;-70
2022/10/08 05:25:33;;;;;;;5.60;5.40;;;;;;;;;;5005655;28;20081;-70
2022/10/08 05:27:58;;;;;;;5.50;5.30;;;;;;;;;;4999306;28;20120;-70
2022/10/08 05:30:24;;;;;;;5.65;5.43;;;;;;;;;;5002502;28;20122;-70
2022/10/08 05:32:50;;;;;;;5.57;5.38;;;;;;;;;;5001235;28;20046;-70
2022/10/08 05:35:16;;;;;;;5.55;5.35;;;;;;;;;;5000613;28;20117;-70
2022/10/08 05:37:41;;;;;;;5.45;5.25;;;;;;;;;;4998904;28;20702;-70
2022/10/08 05:40:07;;;;;;;5.18;4.97;;;;;;;;;;5004073;28;20037;-70
2022/10/08 05:42:33;;;;;;;5.13;4.93;;;;;;;;;;4999162;28;20048;-70
2022/10/08 05:44:58;;;;;;;5.60;5.40;;;;;;;;;;5001896;28;20033;-71
2022/10/08 05:47:24;;;;;;;5.30;5.10;;;;;;;;;;4995275;28;20042;-70
2022/10/08 05:49:50;;;;;;;5.50;5.30;;;;;;;;;;4996712;28;20691;-70
2022/10/08 05:52:15;;;;;;;5.85;5.55;;;;;;;;;;4994353;28;20042;-70
2022/10/08 05:54:41;;;;;;;5.25;5.05;;;;;;;;;;4999009;28;20045;-70
2022/10/08 05:57:06;;;;;;;5.30;5.10;;;;;;;;;;4997019;28;20037;-70
2022/10/08 05:59:32;;;;;;;5.50;5.30;;;;;;;;;;5004388;28;20040;-70
2022/10/08 06:01:58;;;;;;;5.50;5.30;;;;;;;;;;4998511;28;20032;-70
2022/10/08 06:04:23;;;;;;;5.90;5.60;;;;;;;;;;4996772;28;20030;-70
2022/10/08 06:06:49;;;;;;;5.78;5.47;;;;;;;;;;4998770;28;20034;-70
2022/10/08 06:09:18;;;;;;;5.10;4.90;;;;;;;;;;5002349;28;20033;-70
2022/10/08 06:11:44;;;;;;;5.75;5.45;;;;;;;;;;5001341;28;20397;-71
2022/10/08 06:14:12;;;;;;;5.60;5.40;;;;;;;;;;5001980;28;20052;-70
2022/10/08 06:16:38;;;;;;;6.10;5.80;;;;;;;;;;5002415;28;20576;-70
2022/10/08 06:19:04;;;;;;;5.80;5.50;;;;;;;;;;5000630;28;20422;-70
2022/10/08 06:21:31;;;;;;;5.75;5.45;;;;;;;;;;4998744;28;20486;-70
2022/10/08 06:23:59;;;;;;;5.90;5.60;;;;;;;;;;5006467;28;20038;-70
2022/10/08 06:26:28;;;;;;;5.70;5.40;;;;;;;;;;5000126;28;20056;-70
2022/10/08 06:28:55;;;;;;;5.90;5.60;;;;;;;;;;4997365;28;20056;-70
2022/10/08 06:31:20;;;;;;;5.50;5.30;;;;;;;;;;5001370;28;20048;-70
2022/10/08 06:33:46;;;;;;;5.32;5.13;;;;;;;;;;4998992;28;20041;-70
2022/10/08 06:36:22;;;;;;;5.53;5.32;;;;;;;;;;4993045;28;20038;-70
2022/10/08 06:38:52;;;;;;;5.20;5.00;;;;;;;;;;4991727;28;20490;-70
2022/10/08 06:41:18;;;;;;;5.32;5.13;;;;;;;;;;4997202;28;20120;-70
2022/10/08 06:43:44;;;;;;;5.13;4.93;;;;;;;;;;4996149;28;20700;-70
2022/10/08 06:46:10;;;;;;;5.60;5.40;;;;;;;;;;4998132;28;20999;-70
2022/10/08 06:48:36;;;;;;;5.47;5.28;;;;;;;;;;4997260;28;20038;-70
2022/10/08 06:51:06;;;;;;;5.30;5.10;;;;;;;;;;4994201;28;20029;-70
2022/10/08 06:53:32;;;;;;;5.68;5.40;;;;;;;;;;4996775;28;20065;-70
2022/10/08 06:55:59;;;;;;;5.60;5.40;;;;;;;;;;4995023;28;20096;-70
2022/10/08 06:58:25;;;;;;;5.68;5.47;;;;;;;;;;4995683;28;20061;-70
2022/10/08 07:01:03;;;;;;;5.30;5.10;;;;;;;;;;4995052;28;20069;-70
2022/10/08 07:03:29;;;;;;;5.22;5.03;;;;;;;;;;4997794;28;20502;-70
2022/10/08 07:05:55;;;;;;;5.40;5.20;;;;;;;;;;4995621;28;20044;-70
2022/10/08 07:08:20;;;;;;;5.50;5.30;;;;;;;;;;4991931;28;20109;-70
2022/10/08 07:10:46;;;;;;;5.60;5.40;;;;;;;;;;4997272;28;20095;-70
2022/10/08 07:13:11;;;;;;;5.07;4.88;;;;;;;;;;4994154;28;20046;-70
2022/10/08 07:15:37;;;;;;;5.82;5.53;;;;;;;;;;4995396;28;20044;-70
2022/10/08 07:18:03;;;;;;;5.00;4.80;;;;;;;;;;4999848;28;20042;-70
2022/10/08 07:20:29;;;;;;;5.35;5.15;;;;;;;;;;5002076;28;20092;-70
2022/10/08 07:22:54;;;;;;;6.30;5.90;;;;;;;;;;5002030;28;20494;-70
2022/10/08 07:25:20;;;;;;;6.00;5.70;;;;;;;;;;5004627;28;20506;-70
2022/10/08 07:27:45;;;;;;;5.22;5.03;;;;;;;;;;5003253;28;20049;-70
2022/10/08 07:30:11;;;;;;;5.82;5.53;;;;;;;;;;5003644;28;20033;-70
2022/10/08 07:32:36;;;;;;;6.05;5.75;;;;;;;;;;5004053;28;20041;-70
2022/10/08 07:35:02;;;;;;;6.18;5.88;;;;;;;;;;5001487;28;20034;-70
2022/10/08 07:37:27;;;;;;;6.00;5.70;;;;;;;;;;4999540;28;20038;-70
2022/10/08 07:39:53;;;;;;;6.45;6.15;;;;;;;;;;5004663;28;20038;-70
2022/10/08 07:42:19;;;;;;;5.82;5.53;;;;;;;;;;5001384;28;20026;-70
2022/10/08 07:44:44;;;;;;;5.90;5.60;;;;;;;;;;5003444;28;20508;-71
2022/10/08 07:47:10;;;;;;;5.68;5.40;;;;;;;;;;5004031;28;20033;-70
2022/10/08 07:49:35;;;;;;;6.13;5.82;;;;;;;;;;4999040;28;20045;-70
2022/10/08 07:52:01;;;;;;;6.07;5.78;;;;;;;;;;4997547;28;20026;-71
2022/10/08 07:54:26;;;;;;;5.43;5.22;;;;;;;;;;5006202;28;20062;-70
2022/10/08 07:56:52;;;;;;;5.85;5.55;;;;;;;;;;5003648;28;20100;-70
2022/10/08 07:59:17;;;;;;;5.97;5.68;;;;;;;;;;4999878;28;20089;-71
2022/10/08 08:01:43;;;;;;;5.60;5.40;;;;;;;;;;5000675;28;20033;-70
2022/10/08 08:04:10;;;;;;;5.55;5.35;;;;;;;;;;5000795;28;20045;-70
2022/10/08 08:06:46;;;;;;;5.55;5.35;;;;;;;;;;5000568;28;20092;-70
2022/10/08 08:09:13;;;;;;;5.70;5.40;;;;;;;;;;4998491;28;20124;-71
2022/10/08 08:11:39;;;;;;;5.95;5.65;;;;;;;;;;4998185;28;20034;-70
2022/10/08 08:14:05;;;;;;;5.78;5.47;;;;;;;;;;5003373;28;20478;-71
2022/10/08 08:16:30;;;;;;;5.30;5.10;;;;;;;;;;5001859;28;20037;-70
2022/10/08 08:18:59;;;;;;;5.78;5.47;;;;;;;;;;5004495;28;20034;-70
2022/10/08 08:21:33;;;;;;;5.30;5.10;;;;;;;;;;5004613;28;20030;-70
2022/10/08 08:24:06;;;;;;;5.20;5.00;;;;;;;;;;5003703;28;20042;-70
2022/10/08 08:26:34;;;;;;;5.40;5.20;;;;;;;;;;4999359;28;20125;-70
2022/10/08 08:29:09;;;;;;;5.43;5.22;;;;;;;;;;5001129;28;20049;-70
2022/10/08 08:31:37;;;;;;;5.10;4.90;;;;;;;;;;5001760;28;20487;-70
2022/10/08 08:34:09;;;;;;;5.40;5.20;;;;;;;;;;5000555;28;20058;-70
2022/10/08 08:36:40;;;;;;;5.25;5.05;;;;;;;;;;4997913;28;20478;-70
2022/10/08 08:39:09;;;;;;;5.38;5.13;;;;;;;;;;4999629;28;20034;-70
2022/10/08 08:41:53;;;;;;;5.55;5.35;;;;;;;;;;5003155;28;20038;-70
2022/10/08 08:44:22;;;;;;;5.50;5.30;;;;;;;;;;5002722;28;20637;-70
2022/10/08 08:47:35;;;;;;;5.78;5.47;;;;;;;;;;4997639;28;20030;-70
2022/10/08 08:50:06;;;;;;;6.10;5.80;;;;;;;;;;4977989;28;20034;-70
2022/10/08 08:52:38;;;;;;;6.57;6.07;;;;;;;;;;5000964;28;20034;-70
2022/10/08 08:55:14;;;;;;;5.70;5.43;;;;;;;;;;5005658;28;20088;-70
2022/10/08 08:57:51;;;;;;;5.72;5.43;;;;;;;;;;5001012;28;20659;-70
2022/10/08 09:00:21;;;;;;;5.30;5.10;;;;;;;;;;4992293;28;20505;-70
2022/10/08 09:03:11;;;;;;;5.18;4.97;;;;;;;;;;5000134;28;20497;-70
2022/10/08 09:05:44;;;;;;;5.30;5.10;;;;;;;;;;5000732;28;20153;-70
2022/10/08 09:08:24;;;;;;;5.47;5.28;;;;;;;;;;4999424;28;20061;-70
2022/10/08 09:10:57;;;;;;;5.32;5.13;;;;;;;;;;5004219;28;20069;-70
2022/10/08 09:14:07;;;;;;;5.40;5.20;;;;;;;;;;5003335;28;20099;-70
2022/10/08 09:16:34;;;;;;;5.25;5.05;;;;;;;;;;4920531;29;20525;-70
2022/10/08 09:19:00;;;;;;;5.95;5.65;;;;;;;;;;4921878;29;20130;-70
2022/10/08 09:21:29;;;;;;;5.57;5.38;;;;;;;;;;4924016;29;20532;-70
2022/10/08 09:23:54;;;;;;;5.78;5.47;;;;;;;;;;4909416;29;20099;-70
2022/10/08 09:26:22;;;;;;;5.38;5.18;;;;;;;;;;4914212;29;20555;-70
2022/10/08 09:28:57;;;;;;;5.60;5.38;;;;;;;;;;4920639;29;20051;-70
2022/10/08 09:31:37;;;;;;;5.40;5.20;;;;;;;;;;4925327;29;20349;-70
2022/10/08 09:34:09;;;;;;;5.70;5.40;;;;;;;;;;4917853;29;20059;-70
2022/10/08 09:36:41;;;;;;;4.97;4.78;;;;;;;;;;4917106;29;20050;-70
2022/10/08 09:39:18;;;;;;;5.40;5.20;;;;;;;;;;4920909;29;20571;-70
2022/10/08 09:41:45;;;;;;;5.30;5.10;;;;;;;;;;4921170;29;20043;-70
2022/10/08 09:44:16;;;;;;;5.03;4.82;;;;;;;;;;4924394;29;20172;-70
2022/10/08 09:46:41;;;;;;;5.35;5.15;;;;;;;;;;4909490;29;20043;-71
2022/10/08 09:49:29;;;;;;;5.80;5.50;;;;;;;;;;4922082;29;20182;-71
2022/10/08 09:51:59;;;;;;;5.88;5.57;;;;;;;;;;4921438;28;20778;-71
2022/10/08 09:54:28;;;;;;;;;;;;;;;;;;4998004;28;20034;-71
2022/10/08 09:56:57;;;;;;;5.70;5.40;;;;;;;;;;4997170;28;20479;-71
2022/10/08 09:59:26;;;;;;;5.00;4.80;;;;;;;;;;5001799;28;20150;-71
2022/10/08 10:01:52;;;;;;;5.57;5.38;;;;;;;;;;4999450;28;20042;-71
2022/10/08 10:04:32;;;;;;;4.97;4.78;;;;;;;;;;5001627;28;20041;-71
2022/10/08 10:06:58;;;;;;;5.03;4.82;;;;;;;;;;4997291;28;20041;-71
2022/10/08 10:09:36;;;;;;;4.97;4.78;;;;;;;;;;5005398;28;20683;-71
2022/10/08 10:12:10;;;;;;;5.00;4.80;;;;;;;;;;4998860;28;20034;-70
2022/10/08 10:14:50;;;;;;;5.00;4.80;;;;;;;;;;4994584;28;20030;-70
2022/10/08 10:17:37;;;;;;;4.90;4.70;;;;;;;;;;4999628;28;20490;-70
2022/10/08 10:20:29;;;;;;;5.85;5.55;;;;;;;;;;4996488;28;20077;-70
2022/10/08 10:23:00;;;;;;;5.47;5.28;;;;;;;;;;4989176;28;20073;-70
2022/10/08 10:25:33;;;;;;;5.93;5.63;;;;;;;;;;4999399;28;20027;-70
2022/10/08 10:28:05;;;;;;;5.95;5.65;;;;;;;;;;4997839;28;20129;-70
2022/10/08 10:30:41;;;;;;;5.82;5.53;;;;;;;;;;4999893;28;20068;-70
2022/10/08 10:33:16;;;;;;;5.50;5.30;;;;;;;;;;4997655;28;20069;-70
2022/10/08 10:35:49;;;;;;;5.35;5.15;;;;;;;;;;4999345;28;20103;-70
2022/10/08 10:38:23;;;;;;;5.85;5.55;;;;;;;;;;5001605;28;20045;-70
2022/10/08 10:41:12;;;;;;;6.00;5.70;;;;;;;;;;4998190;28;20065;-70
2022/10/08 10:44:01;;;;;;;5.80;5.50;;;;;;;;;;4998567;28;20054;-70
2022/10/08 10:46:29;;;;;;;;;;;;;;;;;;5000016;28;20042;-70
2022/10/08 10:48:55;;;;;;;5.43;5.22;;;;;;;;;;4999990;28;19932;-70
2022/10/08 10:51:37;;;;;;;5.78;5.47;;;;;;;;;;4997994;28;20031;-70
2022/10/08 10:54:24;;;;;;;5.28;5.07;;;;;;;;;;5003735;28;20062;-70
2022/10/08 10:56:59;;;;;;;5.88;5.57;;;;;;;;;;5001232;28;20080;-71
2022/10/08 10:59:46;;;;;;;6.03;5.72;;;;;;;;;;4999843;28;20096;-72
2022/10/08 11:02:25;;;;;;;6.20;5.90;;;;;;;;;;5002733;28;20026;-72
2022/10/08 11:05:03;;;;;;;6.43;6.13;;;;;;;;;;4999189;28;20026;-72
2022/10/08 11:07:47;;;;;;;5.85;5.55;;;;;;;;;;4998571;28;20046;-71
2022/10/08 11:10:33;;;;;;;5.95;5.65;;;;;;;;;;5002885;28;20701;-71
2022/10/08 11:13:46;;;;;;;5.80;5.50;;;;;;;;;;5003417;28;20040;-72
2022/10/08 11:16:44;;;;;;;5.90;5.60;;;;;;;;;;5001317;28;20644;-71
2022/10/08 11:19:34;;;;;;;6.05;5.75;;;;;;;;;;4998341;28;20138;-72
2022/10/08 11:22:16;;;;;;;5.55;5.35;;;;;;;;;;4964729;28;20064;-71
2022/10/08 11:25:03;;;;;;;5.20;5.00;;;;;;;;;;5004322;28;20072;-71
2022/10/08 11:27:34;;;;;;;5.13;4.93;;;;;;;;;;5002897;28;20116;-70
2022/10/08 11:30:13;;;;;;;5.53;5.32;;;;;;;;;;5002205;28;20037;-71
2022/10/08 11:32:42;;;;;;;5.50;5.30;;;;;;;;;;5003182;28;20675;-69
2022/10/08 11:35:10;;;;;;;5.90;5.60;;;;;;;;;;5003593;28;20072;-71
2022/10/08 11:38:01;;;;;;;5.20;5.00;;;;;;;;;;5001586;28;20482;-71
2022/10/08 11:40:35;;;;;;;5.50;5.30;;;;;;;;;;5005935;28;20109;-73
2022/10/08 11:43:24;;;;;;;6.00;5.70;;;;;;;;;;5001116;28;20041;-72
2022/10/08 11:46:10;;;;;;;;;;;;;;;;;;4998920;28;20076;-72
2022/10/08 11:48:35;;;;;;;6.38;6.07;;;;;;;;;;4987367;28;19952;-70
2022/10/08 11:51:36;;;;;;;6.00;5.70;;;;;;;;;;5000613;28;20046;-71
2022/10/08 11:54:31;;;;;;;5.68;5.40;;;;;;;;;;4902160;29;20055;-73
2022/10/08 11:57:21;;;;;;;5.97;5.68;;;;;;;;;;4898155;29;20129;-73
2022/10/08 12:00:28;;;;;;;5.97;5.68;;;;;;;;;;4910012;29;20039;-71
2022/10/08 12:02:54;;;;;;;6.47;6.15;;;;;;;;;;4894201;29;20079;-71
2022/10/08 12:05:20;;;;;;;6.20;5.90;;;;;;;;;;4908947;29;20829;-71
2022/10/08 12:07:55;;;;;;;6.00;5.70;;;;;;;;;;4907823;29;20126;-72
2022/10/08 12:10:33;;;;;;;6.22;5.93;;;;;;;;;;4911073;29;20047;-73
2022/10/08 12:13:01;;;;;;;6.38;6.07;;;;;;;;;;4910580;29;20044;-73
2022/10/08 12:15:27;;;;;;;6.25;5.95;;;;;;;;;;4908686;29;20032;-72
2022/10/08 12:18:22;;;;;;;6.82;6.43;;;;;;;;;;4909234;29;20571;-73
2022/10/08 12:21:16;;;;;;;6.25;5.95;;;;;;;;;;4898296;29;20040;-70
2022/10/08 12:23:43;;;;;;;6.30;6.00;;;;;;;;;;4907704;29;20160;-71
2022/10/08 12:26:14;;;;;;;6.30;6.00;;;;;;;;;;4905571;29;20070;-71
2022/10/08 12:28:42;;;;;;;6.60;6.30;;;;;;;;;;4907475;29;20088;-72
2022/10/08 12:31:26;;;;;;;6.45;6.15;;;;;;;;;;4984216;28;20078;-72
2022/10/08 12:34:12;;;;;;;6.13;5.82;;;;;;;;;;5001961;28;20383;-72
2022/10/08 12:36:49;;;;;;;6.38;6.07;;;;;;;;;;4997146;28;20034;-73
2022/10/08 12:39:35;;;;;;;6.50;6.20;;;;;;;;;;5001613;28;20030;-72
2022/10/08 12:42:25;;;;;;;6.60;6.30;;;;;;;;;;4996771;28;20038;-73
2022/10/08 12:45:02;;;;;;;6.72;6.43;;;;;;;;;;4998414;28;20029;-71
2022/10/08 12:47:42;;;;;;;6.85;6.55;;;;;;;;;;4999966;28;20041;-71
2022/10/08 12:50:17;;;;;;;5.63;5.38;;;;;;;;;;4994492;28;20069;-72
2022/10/08 12:52:43;;;;;;;6.70;6.20;;;;;;;;;;4998621;28;20045;-72
2022/10/08 12:55:21;;;;;;;6.55;6.25;;;;;;;;;;4999909;28;20426;-73
2022/10/08 12:57:48;;;;;;;6.70;6.40;;;;;;;;;;4994383;28;20073;-71
2022/10/08 13:00:17;;;;;;;6.32;6.03;;;;;;;;;;4996194;28;20038;-72
2022/10/08 13:02:56;;;;;;;6.20;5.90;;;;;;;;;;5000075;28;20382;-73
2022/10/08 13:05:24;;;;;;;6.60;6.30;;;;;;;;;;4997267;28;20037;-71
2022/10/08 13:07:50;;;;;;;6.05;5.75;;;;;;;;;;4995463;28;20497;-72
2022/10/08 13:10:19;;;;;;;6.00;5.70;;;;;;;;;;4995410;28;20053;-72
2022/10/08 13:13:36;;;;;;;6.07;5.78;;;;;;;;;;5001008;28;20071;-72
2022/10/08 13:16:03;;;;;;;6.00;5.70;;;;;;;;;;4976927;28;20115;-73
2022/10/08 13:18:29;;;;;;;6.10;5.80;;;;;;;;;;4998731;28;20038;-72
2022/10/08 13:20:56;;;;;;;6.20;5.90;;;;;;;;;;4999527;28;20572;-72
2022/10/08 13:23:30;;;;;;;6.65;6.35;;;;;;;;;;4998999;28;20074;-71
2022/10/08 13:25:58;;;;;;;6.70;6.40;;;;;;;;;;4996029;28;20036;-73
2022/10/08 13:28:23;;;;;;;6.80;6.50;;;;;;;;;;4994763;28;20110;-71
2022/10/08 13:30:54;;;;;;;6.18;5.88;;;;;;;;;;5000833;28;20145;-71
2022/10/08 13:33:23;;;;;;;6.28;5.97;;;;;;;;;;4998890;28;20037;-71
2022/10/08 13:35:55;;;;;;;6.32;6.03;;;;;;;;;;4995027;28;20129;-71
2022/10/08 13:38:24;;;;;;;6.53;6.22;;;;;;;;;;4995923;28;20033;-71
2022/10/08 13:40:52;;;;;;;6.68;6.38;;;;;;;;;;4996060;28;20021;-71
2022/10/08 13:43:18;;;;;;;6.00;5.70;;;;;;;;;;4997619;28;20042;-74
2022/10/08 13:45:44;;;;;;;6.82;6.53;;;;;;;;;;4990512;28;20629;-72
2022/10/08 13:48:13;;;;;;;6.20;5.90;;;;;;;;;;4994388;28;20044;-72
2022/10/08 13:50:43;;;;;;;;;;;;;;;;;;4997864;28;20045;-71
2022/10/08 13:53:11;;;;;;;6.65;6.35;;;;;;;;;;4997008;28;20351;-73
2022/10/08 13:55:37;;;;;;;6.85;6.55;;;;;;;;;;4992354;28;20092;-71
2022/10/08 13:58:05;;;;;;;6.70;6.40;;;;;;;;;;4996748;28;20065;-71
2022/10/08 14:00:33;;;;;;;6.60;6.30;;;;;;;;;;4992258;28;20497;-71
2022/10/08 14:02:58;;;;;;;6.53;6.22;;;;;;;;;;5000238;28;20037;-71
2022/10/08 14:05:27;;;;;;;6.82;6.53;;;;;;;;;;4998181;28;20509;-71
2022/10/08 14:08:00;;;;;;;6.18;5.88;;;;;;;;;;5018026;28;20236;-71
2022/10/08 14:10:26;;;;;;;6.55;6.25;;;;;;;;;;4995010;28;20341;-71
2022/10/08 14:12:52;;;;;;;6.43;6.13;;;;;;;;;;4992245;28;20044;-71
2022/10/08 14:15:18;;;;;;;6.40;6.10;;;;;;;;;;4996949;28;20498;-71
2022/10/08 14:17:44;;;;;;;6.15;5.85;;;;;;;;;;4998163;28;20034;-71
2022/10/08 14:20:10;;;;;;;6.30;6.00;;;;;;;;;;4994980;28;20042;-71
2022/10/08 14:22:38;;;;;;;6.30;6.00;;;;;;;;;;4994142;28;20537;-71
2022/10/08 14:25:07;;;;;;;6.07;5.78;;;;;;;;;;4998563;28;20060;-71
2022/10/08 14:27:32;;;;;;;6.20;5.90;;;;;;;;;;4995370;28;20042;-71
2022/10/08 14:29:58;;;;;;;6.47;6.18;;;;;;;;;;4995717;28;20049;-71
2022/10/08 14:32:23;;;;;;;6.60;6.30;;;;;;;;;;4992743;28;20419;-71
2022/10/08 14:34:49;;;;;;;6.30;6.00;;;;;;;;;;4999888;28;20370;-72
2022/10/08 14:37:15;;;;;;;6.20;5.90;;;;;;;;;;4999616;28;20040;-71
2022/10/08 14:39:40;;;;;;;5.90;5.60;;;;;;;;;;5000567;28;20022;-72
2022/10/08 14:42:06;;;;;;;6.03;5.72;;;;;;;;;;4994091;28;20132;-71
2022/10/08 14:44:31;;;;;;;6.00;5.70;;;;;;;;;;5001221;28;20030;-73
2022/10/08 14:46:57;;;;;;;5.82;5.53;;;;;;;;;;4998108;28;20034;-71
2022/10/08 14:49:22;;;;;;;6.00;5.70;;;;;;;;;;4994343;28;20040;-71
2022/10/08 14:51:48;;;;;;;5.93;5.63;;;;;;;;;;4997094;28;20034;-71
2022/10/08 14:54:14;;;;;;;5.20;5.00;;;;;;;;;;4999603;28;20041;-71
2022/10/08 14:56:43;;;;;;;6.05;5.75;;;;;;;;;;5006635;28;20042;-73
2022/10/08 14:59:09;;;;;;;5.50;5.30;;;;;;;;;;4997635;28;20038;-71
2022/10/08 15:01:35;;;;;;;5.75;5.45;;;;;;;;;;4998682;28;20081;-71
2022/10/08 15:04:04;;;;;;;5.80;5.50;;;;;;;;;;5002485;28;20061;-72
2022/10/08 15:06:31;;;;;;;5.45;5.25;;;;;;;;;;4996860;28;20034;-73
2022/10/08 15:08:57;;;;;;;5.40;5.20;;;;;;;;;;4996181;28;20050;-72
2022/10/08 15:11:23;;;;;;;5.35;5.15;;;;;;;;;;4998828;28;20129;-71